Time;durP1;ratioP1;P1;durP2;ratioP2;P2;SDS_P1;SDS_P2;PMS_P1;PMS_P2;Temp;Humidity;BMP_temperature;BMP_pressure;BME280_temperature;BME280_humidity;BME280_pressure;Samples;Min_cycle;Max_cycle;Signal;HPM_P1;HPM_P2
2021/03/13 00:00:54;;;;;;;51.27;23.63;;;4.30;88.20;;;;;;5042720;28;20180;-74
2021/03/13 00:03:19;;;;;;;35.13;19.23;;;4.30;88.20;;;;;;5056020;28;20179;-73
2021/03/13 00:05:46;;;;;;;43.33;21.17;;;4.30;88.20;;;;;;5044221;28;21020;-74
2021/03/13 00:08:12;;;;;;;43.70;22.97;;;4.30;88.20;;;;;;5043817;28;20268;-74
2021/03/13 00:10:41;;;;;;;47.87;22.83;;;4.20;88.20;;;;;;5047091;28;20183;-74
2021/03/13 00:13:07;;;;;;;49.07;23.80;;;4.20;88.30;;;;;;5065277;28;20171;-74
2021/03/13 00:15:34;;;;;;;47.80;22.30;;;4.20;88.50;;;;;;5059258;28;20408;-74
2021/03/13 00:18:00;;;;;;;51.57;23.33;;;4.20;88.40;;;;;;5062940;28;20183;-74
2021/03/13 00:20:28;;;;;;;50.73;21.30;;;4.20;88.70;;;;;;5065927;28;20600;-74
2021/03/13 00:22:54;;;;;;;38.20;20.40;;;4.20;89.20;;;;;;5066283;28;20167;-73
2021/03/13 00:25:22;;;;;;;36.87;19.83;;;4.20;89.00;;;;;;5042566;28;20180;-74
2021/03/13 00:27:48;;;;;;;44.17;20.27;;;4.20;89.00;;;;;;5067222;28;20187;-73
2021/03/13 00:30:18;;;;;;;42.13;20.47;;;4.20;88.80;;;;;;5063037;28;20183;-73
2021/03/13 00:32:47;;;;;;;40.93;20.60;;;4.20;89.00;;;;;;5061644;28;20221;-74
2021/03/13 00:35:13;;;;;;;35.17;18.30;;;4.20;89.30;;;;;;5058744;28;20569;-74
2021/03/13 00:37:39;;;;;;;39.07;19.03;;;4.20;89.40;;;;;;5062436;28;20179;-74
2021/03/13 00:40:08;;;;;;;41.83;19.33;;;4.20;89.50;;;;;;5069049;28;20198;-73
2021/03/13 00:42:34;;;;;;;34.03;16.87;;;4.10;89.50;;;;;;5060454;28;20210;-74
2021/03/13 00:45:00;;;;;;;35.60;17.30;;;4.20;89.50;;;;;;5059096;28;20208;-74
2021/03/13 00:47:27;;;;;;;27.93;15.77;;;4.20;89.70;;;;;;5065979;28;20187;-74
2021/03/13 00:49:52;;;;;;;30.33;13.87;;;4.10;89.70;;;;;;5062767;28;20187;-74
2021/03/13 00:52:18;;;;;;;26.37;11.57;;;4.10;89.80;;;;;;5066077;28;20908;-74
2021/03/13 00:54:44;;;;;;;22.33;12.03;;;4.10;89.70;;;;;;5061062;28;20179;-73
2021/03/13 00:57:09;;;;;;;25.40;12.57;;;4.10;89.60;;;;;;5043441;28;20198;-74
2021/03/13 00:59:35;;;;;;;19.90;12.70;;;4.10;89.70;;;;;;5063372;28;20202;-73
2021/03/13 01:02:01;;;;;;;23.97;14.43;;;4.10;90.10;;;;;;5065932;28;20187;-73
2021/03/13 01:04:26;;;;;;;24.03;13.50;;;4.20;90.00;;;;;;5063883;28;20207;-73
2021/03/13 01:06:52;;;;;;;23.63;13.50;;;4.20;90.00;;;;;;5064580;28;20803;-73
2021/03/13 01:09:18;;;;;;;22.60;12.27;;;4.20;89.90;;;;;;5060282;28;20187;-73
2021/03/13 01:11:43;;;;;;;21.73;12.20;;;4.20;89.90;;;;;;5061530;28;20549;-74
2021/03/13 01:14:10;;;;;;;26.47;11.33;;;4.20;89.70;;;;;;5059989;28;20179;-74
2021/03/13 01:16:36;;;;;;;23.70;12.77;;;4.20;89.60;;;;;;5047787;28;20191;-74
2021/03/13 01:19:02;;;;;;;24.50;12.20;;;4.30;89.50;;;;;;5064113;28;20320;-73
2021/03/13 01:21:28;;;;;;;27.20;13.13;;;4.30;89.30;;;;;;5061584;28;20244;-73
2021/03/13 01:23:54;;;;;;;25.87;13.30;;;4.40;89.40;;;;;;5042675;28;20191;-74
2021/03/13 01:26:19;;;;;;;28.70;14.00;;;4.40;89.20;;;;;;5065353;28;20643;-74
2021/03/13 01:28:46;;;;;;;23.63;12.77;;;4.40;89.10;;;;;;5039637;28;20183;-74
2021/03/13 01:31:12;;;;;;;22.50;11.93;;;4.50;89.10;;;;;;5061020;28;20652;-73
2021/03/13 01:33:38;;;;;;;25.17;12.40;;;4.50;89.10;;;;;;5066233;28;20175;-75
2021/03/13 01:36:04;;;;;;;20.07;10.60;;;4.50;89.00;;;;;;5064542;28;20190;-74
2021/03/13 01:38:30;;;;;;;25.10;13.57;;;4.60;89.00;;;;;;5056766;28;20230;-74
2021/03/13 01:40:56;;;;;;;21.83;13.13;;;4.60;88.90;;;;;;5064750;28;20647;-74
2021/03/13 01:43:22;;;;;;;27.27;14.60;;;4.70;88.90;;;;;;5062035;28;20179;-74
2021/03/13 01:45:48;;;;;;;32.10;15.93;;;4.70;88.80;;;;;;5058102;28;20588;-74
2021/03/13 01:48:13;;;;;;;27.83;14.47;;;4.70;88.70;;;;;;5055496;28;20267;-73
2021/03/13 01:50:39;;;;;;;30.60;16.30;;;4.80;88.60;;;;;;5066275;28;20730;-74
2021/03/13 01:53:05;;;;;;;33.87;15.73;;;4.70;88.40;;;;;;5057755;28;20184;-74
2021/03/13 01:55:31;;;;;;;30.60;15.27;;;4.80;88.20;;;;;;5057286;28;20195;-74
2021/03/13 01:57:57;;;;;;;29.83;16.23;;;4.80;88.00;;;;;;5045959;28;20187;-73
2021/03/13 02:00:24;;;;;;;30.17;15.80;;;4.80;87.90;;;;;;5045003;28;21054;-73
2021/03/13 02:02:50;;;;;;;29.50;15.30;;;4.80;87.80;;;;;;5047072;28;20210;-72
2021/03/13 02:05:26;;;;;;;25.07;14.03;;;4.80;87.90;;;;;;5044260;28;20607;-73
2021/03/13 02:08:01;;;;;;;34.50;16.30;;;4.80;87.80;;;;;;5064208;28;20699;-73
2021/03/13 02:10:31;;;;;;;29.20;15.33;;;4.80;87.40;;;;;;5061065;28;20852;-74
2021/03/13 02:13:06;;;;;;;23.37;14.67;;;4.90;87.40;;;;;;5043087;28;20189;-74
2021/03/13 02:16:17;;;;;;;27.70;15.83;;;4.80;87.60;;;;;;5044127;28;20272;-73
2021/03/13 02:18:57;;;;;;;31.70;15.77;;;4.80;88.10;;;;;;4945710;28;20198;-74
2021/03/13 02:21:36;;;;;;;29.80;16.43;;;4.70;88.40;;;;;;4964820;28;20198;-74
2021/03/13 02:24:02;;;;;;;39.10;16.20;;;4.60;88.40;;;;;;4952580;28;20281;-73
2021/03/13 02:26:41;;;;;;;26.93;14.47;;;4.60;88.90;;;;;;4966355;28;20296;-73
2021/03/13 02:29:35;;;;;;;23.73;13.53;;;4.60;89.20;;;;;;4963069;28;20194;-73
2021/03/13 02:32:12;;;;;;;31.87;15.73;;;4.60;88.80;;;;;;4958120;28;20186;-73
2021/03/13 02:34:43;;;;;;;25.57;14.27;;;4.60;88.80;;;;;;4961002;28;20185;-74
2021/03/13 02:37:14;;;;;;;27.93;14.33;;;4.60;89.10;;;;;;4965248;28;20220;-74
2021/03/13 02:39:42;;;;;;;37.13;14.80;;;4.50;89.60;;;;;;4962585;28;20202;-74
2021/03/13 02:42:10;;;;;;;25.10;13.90;;;4.50;90.20;;;;;;4953654;28;20205;-74
2021/03/13 02:44:38;;;;;;;25.07;12.80;;;4.50;89.90;;;;;;4956627;28;20198;-73
2021/03/13 02:47:06;;;;;;;24.17;13.30;;;4.60;89.90;;;;;;4948637;28;20281;-73
2021/03/13 02:49:35;;;;;;;24.50;12.97;;;4.60;89.70;;;;;;4948795;28;20202;-74
2021/03/13 02:52:02;;;;;;;14.43;10.33;;;4.60;89.70;;;;;;4956250;28;20196;-74
2021/03/13 02:54:31;;;;;;;19.80;11.83;;;4.60;89.70;;;;;;4966428;28;20197;-73
2021/03/13 02:56:59;;;;;;;20.07;12.50;;;4.60;89.50;;;;;;5057593;28;20213;-74
2021/03/13 02:59:27;;;;;;;18.83;11.77;;;4.60;89.60;;;;;;5045997;28;20475;-74
2021/03/13 03:01:56;;;;;;;15.80;10.83;;;4.60;89.50;;;;;;5062907;28;20183;-74
2021/03/13 03:04:23;;;;;;;25.70;12.30;;;4.60;89.40;;;;;;5043408;28;20274;-74
2021/03/13 03:06:52;;;;;;;21.13;12.63;;;4.70;89.30;;;;;;5059027;28;20183;-74
2021/03/13 03:09:19;;;;;;;20.93;12.10;;;4.70;89.20;;;;;;5030613;28;20199;-73
2021/03/13 03:11:45;;;;;;;19.90;11.73;;;4.70;89.20;;;;;;5055748;28;20190;-73
2021/03/13 03:14:14;;;;;;;23.77;12.60;;;4.80;89.20;;;;;;5058712;28;20183;-74
2021/03/13 03:16:42;;;;;;;23.27;12.30;;;4.80;89.00;;;;;;5058320;28;20187;-75
2021/03/13 03:19:09;;;;;;;22.97;13.00;;;4.80;89.00;;;;;;5055227;28;20207;-72
2021/03/13 03:21:38;;;;;;;21.87;13.00;;;4.90;89.00;;;;;;5063070;28;20247;-74
2021/03/13 03:24:06;;;;;;;24.00;12.07;;;4.90;88.90;;;;;;5054989;28;20186;-74
2021/03/13 03:26:33;;;;;;;23.07;13.57;;;5.00;88.80;;;;;;5062668;28;20183;-74
2021/03/13 03:28:59;;;;;;;28.00;13.77;;;5.00;88.70;;;;;;5062854;28;20844;-74
2021/03/13 03:31:25;;;;;;;25.70;13.73;;;5.00;88.70;;;;;;5056288;28;20278;-74
2021/03/13 03:33:50;;;;;;;25.53;13.57;;;5.00;88.60;;;;;;5064075;28;20186;-74
2021/03/13 03:36:16;;;;;;;26.20;13.63;;;5.00;88.60;;;;;;5050508;28;20191;-74
2021/03/13 03:38:42;;;;;;;22.77;13.87;;;5.00;88.50;;;;;;5040698;28;20199;-74
2021/03/13 03:41:08;;;;;;;22.87;13.70;;;5.00;88.60;;;;;;5068139;28;20187;-74
2021/03/13 03:43:42;;;;;;;23.57;13.73;;;5.00;88.60;;;;;;5046108;28;20187;-74
2021/03/13 03:46:10;;;;;;;26.10;13.67;;;5.00;88.50;;;;;;5045396;28;20648;-75
2021/03/13 03:48:36;;;;;;;22.37;13.43;;;5.00;88.50;;;;;;5067235;28;20289;-74
2021/03/13 03:51:08;;;;;;;26.90;13.40;;;5.00;88.50;;;;;;5059059;28;20276;-74
2021/03/13 03:53:38;;;;;;;29.67;13.50;;;5.00;88.50;;;;;;5066378;28;20167;-75
2021/03/13 03:56:05;;;;;;;26.53;13.63;;;5.00;88.50;;;;;;5066797;28;20187;-73
2021/03/13 03:58:47;;;;;;;26.20;13.80;;;5.00;88.50;;;;;;5043188;28;20187;-73
2021/03/13 04:01:13;;;;;;;28.57;14.53;;;4.90;88.50;;;;;;5065128;28;20618;-73
2021/03/13 04:03:44;;;;;;;27.20;14.80;;;4.90;88.90;;;;;;5064029;28;20626;-73
2021/03/13 04:06:12;;;;;;;26.93;13.60;;;4.90;88.90;;;;;;5058196;28;20176;-74
2021/03/13 04:08:40;;;;;;;29.63;13.37;;;4.80;89.10;;;;;;5065376;28;20227;-74
2021/03/13 04:11:06;;;;;;;28.23;14.40;;;4.80;89.10;;;;;;5042031;28;20248;-73
2021/03/13 04:13:33;;;;;;;24.33;14.90;;;4.80;89.20;;;;;;5063525;28;20213;-73
2021/03/13 04:15:59;;;;;;;22.20;13.67;;;4.80;89.30;;;;;;5049293;28;20182;-73
2021/03/13 04:18:25;;;;;;;28.57;14.37;;;4.80;89.30;;;;;;5061106;28;20581;-73
2021/03/13 04:20:52;;;;;;;30.47;16.20;;;4.80;89.30;;;;;;5058279;28;20261;-73
2021/03/13 04:23:21;;;;;;;32.70;17.70;;;4.80;89.30;;;;;;5060880;28;20175;-74
2021/03/13 04:25:48;;;;;;;32.50;17.83;;;4.90;89.30;;;;;;5061325;28;20261;-74
2021/03/13 04:28:14;;;;;;;29.17;16.60;;;4.80;89.60;;;;;;5059334;28;20187;-74
2021/03/13 04:30:41;;;;;;;36.17;19.60;;;4.80;89.40;;;;;;5043792;28;20252;-73
2021/03/13 04:33:06;;;;;;;35.43;18.80;;;4.70;89.40;;;;;;5038224;28;20184;-73
2021/03/13 04:35:33;;;;;;;32.03;17.77;;;4.70;89.70;;;;;;5052577;28;20197;-73
2021/03/13 04:38:01;;;;;;;33.70;16.57;;;4.60;89.70;;;;;;5062488;28;20183;-73
2021/03/13 04:40:27;;;;;;;32.73;18.10;;;4.50;90.10;;;;;;5065375;28;20206;-74
2021/03/13 04:42:53;;;;;;;34.27;17.77;;;4.50;90.20;;;;;;5060383;28;20834;-74
2021/03/13 04:45:19;;;;;;;35.07;16.87;;;4.50;90.20;;;;;;5063151;28;20175;-72
2021/03/13 04:47:48;;;;;;;31.90;15.93;;;4.40;90.20;;;;;;5065107;28;20244;-74
2021/03/13 04:50:20;;;;;;;28.23;14.93;;;4.30;90.50;;;;;;5075571;28;21917;-73
2021/03/13 04:52:47;;;;;;;24.60;13.90;;;4.30;90.70;;;;;;5055006;28;20211;-73
2021/03/13 04:55:13;;;;;;;27.07;13.30;;;4.20;90.50;;;;;;5045087;28;20182;-73
2021/03/13 04:57:39;;;;;;;24.17;14.47;;;4.20;90.70;;;;;;5063379;28;21122;-73
2021/03/13 05:00:09;;;;;;;28.30;14.80;;;4.20;90.50;;;;;;5062237;28;20207;-73
2021/03/13 05:02:35;;;;;;;26.10;13.53;;;4.10;90.40;;;;;;5062190;28;20263;-75
2021/03/13 05:05:01;;;;;;;23.30;13.47;;;4.10;90.50;;;;;;5032903;28;21031;-73
2021/03/13 05:07:26;;;;;;;28.10;13.87;;;4.10;90.40;;;;;;5065930;28;20282;-74
2021/03/13 05:09:52;;;;;;;30.07;14.67;;;4.00;90.40;;;;;;5064447;28;20276;-74
2021/03/13 05:12:18;;;;;;;24.37;14.20;;;4.10;90.50;;;;;;5057521;28;20179;-74
2021/03/13 05:14:46;;;;;;;25.60;13.93;;;4.10;90.70;;;;;;5059524;28;20625;-73
2021/03/13 05:17:12;;;;;;;29.47;14.63;;;4.10;90.70;;;;;;5043935;28;20713;-73
2021/03/13 05:19:38;;;;;;;33.33;15.37;;;4.10;90.80;;;;;;5033927;28;673086;-74
2021/03/13 05:22:03;;;;;;;27.30;14.43;;;4.10;90.80;;;;;;5058288;28;20264;-74
2021/03/13 05:24:29;;;;;;;27.10;15.57;;;4.10;90.80;;;;;;5059626;28;20190;-73
2021/03/13 05:26:55;;;;;;;29.03;15.50;;;4.20;90.80;;;;;;5065873;28;20272;-72
2021/03/13 05:29:21;;;;;;;29.50;14.13;;;4.20;90.70;;;;;;5042484;28;20202;-73
2021/03/13 05:31:46;;;;;;;33.50;15.67;;;4.20;90.70;;;;;;5063550;28;20261;-73
2021/03/13 05:34:12;;;;;;;25.40;13.07;;;4.20;90.60;;;;;;5060590;28;20270;-73
2021/03/13 05:36:38;;;;;;;31.43;16.47;;;4.30;90.70;;;;;;5065074;28;20187;-74
2021/03/13 05:39:04;;;;;;;40.83;15.20;;;4.30;90.70;;;;;;5058561;28;20237;-73
2021/03/13 05:41:31;;;;;;;26.20;14.17;;;4.30;90.60;;;;;;5063706;28;20186;-73
2021/03/13 05:43:59;;;;;;;32.77;16.77;;;4.40;90.60;;;;;;5061772;28;20620;-74
2021/03/13 05:46:25;;;;;;;29.13;16.13;;;4.40;90.50;;;;;;5058057;28;20184;-75
2021/03/13 05:48:51;;;;;;;25.17;15.87;;;4.50;90.40;;;;;;5054783;28;20218;-74
2021/03/13 05:51:19;;;;;;;30.30;16.87;;;4.60;90.30;;;;;;5045692;28;20234;-73
2021/03/13 05:53:45;;;;;;;44.20;19.20;;;4.60;90.20;;;;;;5035850;28;20208;-73
2021/03/13 05:56:11;;;;;;;40.70;18.10;;;4.60;90.10;;;;;;5064926;28;20698;-73
2021/03/13 05:58:38;;;;;;;34.50;17.93;;;4.60;89.90;;;;;;5063736;28;20194;-73
2021/03/13 06:01:06;;;;;;;34.83;18.47;;;4.70;89.80;;;;;;5057465;28;20643;-73
2021/03/13 06:03:35;;;;;;;36.17;18.30;;;4.70;89.60;;;;;;5066262;28;20210;-75
2021/03/13 06:06:01;;;;;;;39.20;17.70;;;4.80;89.60;;;;;;5066113;28;20175;-75
2021/03/13 06:08:29;;;;;;;35.43;18.67;;;4.90;89.70;;;;;;5063711;28;20674;-76
2021/03/13 06:10:56;;;;;;;36.90;19.93;;;4.90;89.50;;;;;;5066601;28;20179;-76
2021/03/13 06:13:23;;;;;;;34.53;17.83;;;4.90;89.30;;;;;;5063214;28;20183;-75
2021/03/13 06:15:49;;;;;;;40.90;20.80;;;5.00;89.30;;;;;;5041734;28;20188;-76
2021/03/13 06:18:14;;;;;;;33.43;17.87;;;5.00;89.20;;;;;;5055453;28;20267;-75
2021/03/13 06:20:40;;;;;;;31.43;17.97;;;5.00;88.80;;;;;;5057700;28;20214;-76
2021/03/13 06:23:15;;;;;;;40.47;17.50;;;5.00;89.00;;;;;;5062455;28;20773;-76
2021/03/13 06:25:42;;;;;;;38.50;19.87;;;5.10;88.90;;;;;;5054663;28;20217;-75
2021/03/13 06:28:19;;;;;;;38.17;19.33;;;5.10;89.00;;;;;;5065320;28;20217;-75
2021/03/13 06:30:50;;;;;;;38.30;19.07;;;5.20;88.70;;;;;;5053627;28;20190;-75
2021/03/13 06:33:21;;;;;;;34.53;19.37;;;5.30;89.00;;;;;;5060118;28;20183;-75
2021/03/13 06:35:47;;;;;;;33.60;18.77;;;5.40;88.60;;;;;;5070623;28;20226;-77
2021/03/13 06:38:21;;;;;;;33.73;19.27;;;5.50;88.50;;;;;;5062015;28;20198;-76
2021/03/13 06:40:48;;;;;;;33.60;18.03;;;5.70;88.40;;;;;;5052360;28;20202;-75
2021/03/13 06:43:32;;;;;;;30.40;16.43;;;5.80;88.10;;;;;;5069986;28;20236;-75
2021/03/13 06:46:00;;;;;;;34.70;18.57;;;5.80;87.40;;;;;;5071420;28;20187;-75
2021/03/13 06:48:33;;;;;;;33.10;17.43;;;5.90;87.60;;;;;;5037097;28;20191;-75
2021/03/13 06:51:17;;;;;;;38.27;17.93;;;5.80;87.00;;;;;;5056728;28;20986;-75
2021/03/13 06:53:44;;;;;;;31.23;17.30;;;5.80;87.30;;;;;;5065462;28;20191;-76
2021/03/13 06:56:13;;;;;;;26.73;16.70;;;5.90;87.40;;;;;;5045340;28;20639;-76
2021/03/13 06:58:41;;;;;;;38.73;19.80;;;6.00;87.40;;;;;;5061757;28;20175;-76
2021/03/13 07:01:08;;;;;;;32.97;18.13;;;6.00;87.00;;;;;;5058427;28;20269;-75
2021/03/13 07:03:49;;;;;;;35.13;18.37;;;6.10;87.00;;;;;;5041486;28;20225;-75
2021/03/13 07:06:18;;;;;;;33.90;18.50;;;6.10;86.60;;;;;;5069007;28;20257;-75
2021/03/13 07:08:49;;;;;;;30.60;17.50;;;6.20;86.70;;;;;;5053353;28;20174;-76
2021/03/13 07:11:23;;;;;;;29.00;18.10;;;6.30;86.60;;;;;;5064990;28;20178;-77
2021/03/13 07:13:55;;;;;;;26.73;16.20;;;6.40;86.50;;;;;;5060459;28;20170;-76
2021/03/13 07:16:38;;;;;;;37.20;19.67;;;6.60;86.40;;;;;;5059740;28;20175;-75
2021/03/13 07:19:10;;;;;;;34.27;19.33;;;6.80;86.30;;;;;;5039421;28;20201;-77
2021/03/13 07:21:37;;;;;;;35.63;18.03;;;7.10;86.40;;;;;;5046644;28;20219;-75
2021/03/13 07:24:14;;;;;;;28.33;16.10;;;7.30;86.10;;;;;;5060204;28;20209;-76
2021/03/13 07:26:39;;;;;;;28.67;16.47;;;7.60;83.90;;;;;;5067880;28;20171;-74
2021/03/13 07:29:07;;;;;;;23.93;14.70;;;7.80;83.80;;;;;;5058527;28;20186;-75
2021/03/13 07:31:39;;;;;;;23.17;14.20;;;8.00;82.50;;;;;;5064528;28;20264;-75
2021/03/13 07:34:08;;;;;;;28.70;16.07;;;8.20;81.20;;;;;;5059747;28;20179;-74
2021/03/13 07:36:38;;;;;;;27.40;16.40;;;8.40;81.00;;;;;;5060172;28;20198;-76
2021/03/13 07:39:15;;;;;;;27.80;15.90;;;8.60;80.70;;;;;;5056753;28;20215;-72
2021/03/13 07:41:56;;;;;;;29.90;15.93;;;8.90;80.20;;;;;;5062365;28;20185;-76
2021/03/13 07:44:22;;;;;;;26.27;17.03;;;9.10;79.20;;;;;;5034963;28;20184;-78
2021/03/13 07:46:49;;;;;;;27.77;18.40;;;9.30;79.50;;;;;;5060823;28;20202;-77
2021/03/13 07:49:16;;;;;;;29.07;16.97;;;9.50;78.50;;;;;;5061949;28;20186;-77
2021/03/13 07:51:43;;;;;;;33.07;17.17;;;9.70;78.20;;;;;;5056774;28;20183;-76
2021/03/13 07:54:10;;;;;;;26.23;15.73;;;9.80;76.90;;;;;;5060780;28;20344;-76
2021/03/13 07:56:40;;;;;;;25.73;15.37;;;10.00;77.00;;;;;;5046028;28;21124;-75
2021/03/13 07:59:13;;;;;;;28.23;15.10;;;10.20;77.10;;;;;;5063566;28;20201;-77
2021/03/13 08:01:46;;;;;;;27.33;17.33;;;10.50;76.70;;;;;;5061590;28;20186;-79
2021/03/13 08:04:38;;;;;;;29.70;18.07;;;10.80;74.90;;;;;;5056884;28;21103;-79
2021/03/13 08:07:05;;;;;;;33.13;18.03;;;11.00;74.50;;;;;;5070650;28;20648;-79
2021/03/13 08:09:31;;;;;;;26.93;18.73;;;11.30;74.00;;;;;;5061350;28;20187;-78
2021/03/13 08:11:59;;;;;;;32.27;17.03;;;11.70;74.20;;;;;;5050520;28;20266;-82
2021/03/13 08:14:35;;;;;;;37.57;18.97;;;12.20;73.30;;;;;;5066877;28;20178;-82
2021/03/13 08:17:11;;;;;;;33.77;19.23;;;12.80;71.60;;;;;;5050633;28;20295;-79
2021/03/13 08:19:40;;;;;;;28.35;17.80;;;13.40;69.40;;;;;;5067826;28;20207;-72
2021/03/13 08:22:22;;;;;;;33.47;18.38;;;13.80;68.70;;;;;;5041259;28;20804;-73
2021/03/13 08:24:53;;;;;;;25.38;16.30;;;14.40;66.60;;;;;;5044811;28;20206;-76
2021/03/13 08:27:48;;;;;;;29.30;17.83;;;14.90;64.70;;;;;;5063261;28;20564;-80
2021/03/13 08:30:19;;;;;;;33.85;18.88;;;15.40;64.20;;;;;;4996744;28;20193;-75
2021/03/13 08:33:00;;;;;;;33.65;19.95;;;15.90;63.90;;;;;;4976155;28;20192;-73
2021/03/13 08:35:38;;;;;;;28.20;19.67;;;16.50;62.90;;;;;;5009085;28;20763;-72
2021/03/13 08:38:04;;;;;;;33.28;21.08;;;16.90;62.30;;;;;;5003161;28;20193;-73
2021/03/13 08:40:30;;;;;;;27.65;18.52;;;17.20;61.50;;;;;;5003675;28;20318;-73
2021/03/13 08:42:56;;;;;;;30.65;19.23;;;17.40;60.10;;;;;;5000041;28;20189;-74
2021/03/13 08:45:23;;;;;;;27.98;19.02;;;17.60;60.20;;;;;;5000876;28;20177;-72
2021/03/13 08:47:53;;;;;;;28.75;19.98;;;17.70;60.00;;;;;;4984960;28;20210;-76
2021/03/13 08:50:43;;;;;;;25.55;17.67;;;17.80;59.80;;;;;;5011680;28;20689;-78
2021/03/13 08:53:34;;;;;;;31.23;19.77;;;17.80;59.50;;;;;;5000131;28;20586;-79
2021/03/13 08:56:01;;;;;;;28.20;18.80;;;17.60;59.00;;;;;;4990037;28;21000;-80
2021/03/13 08:58:42;;;;;;;30.52;16.27;;;17.50;59.70;;;;;;5008238;28;20207;-76
2021/03/13 09:01:20;;;;;;;26.33;15.48;;;17.40;59.80;;;;;;4994691;28;20223;-78
2021/03/13 09:03:48;;;;;;;24.17;15.50;;;17.30;59.80;;;;;;5002475;28;20193;-76
2021/03/13 09:06:14;;;;;;;25.83;17.58;;;17.30;60.60;;;;;;5001499;28;20684;-76
2021/03/13 09:08:40;;;;;;;25.48;16.17;;;17.30;59.60;;;;;;5066323;28;20185;-76
2021/03/13 09:11:05;;;;;;;30.75;18.02;;;17.20;59.70;;;;;;5058813;28;20262;-76
2021/03/13 09:13:31;;;;;;;28.73;16.75;;;17.10;59.60;;;;;;5069005;28;20206;-76
2021/03/13 09:15:57;;;;;;;30.15;17.13;;;17.20;60.40;;;;;;5071890;28;20613;-76
2021/03/13 09:18:22;;;;;;;22.70;15.65;;;17.50;60.20;;;;;;5060553;28;20175;-76
2021/03/13 09:20:48;;;;;;;23.10;15.82;;;17.90;60.00;;;;;;5065672;28;20772;-76
2021/03/13 09:23:14;;;;;;;22.88;15.90;;;18.30;59.10;;;;;;5065933;28;20655;-77
2021/03/13 09:25:39;;;;;;;23.40;16.17;;;18.50;57.90;;;;;;5059978;28;20195;-77
2021/03/13 09:28:05;;;;;;;27.73;17.40;;;18.70;57.30;;;;;;5065404;28;20182;-77
2021/03/13 09:30:35;;;;;;;28.40;17.33;;;18.70;58.10;;;;;;5039823;28;20184;-77
2021/03/13 09:33:00;;;;;;;23.08;15.52;;;18.50;58.10;;;;;;5065884;28;20187;-77
2021/03/13 09:35:27;;;;;;;29.77;17.13;;;18.30;57.90;;;;;;5065729;28;20183;-77
2021/03/13 09:37:53;;;;;;;26.52;18.52;;;17.90;58.50;;;;;;5065395;28;20183;-77
2021/03/13 09:40:26;;;;;;;24.20;17.50;;;17.40;58.70;;;;;;5065057;28;20268;-76
2021/03/13 09:42:53;;;;;;;29.10;18.20;;;17.10;59.50;;;;;;5065581;28;20187;-77
2021/03/13 09:45:21;;;;;;;26.05;16.77;;;16.80;60.10;;;;;;5047043;28;20172;-77
2021/03/13 09:47:46;;;;;;;25.10;16.70;;;16.50;60.70;;;;;;5065292;28;20189;-77
2021/03/13 09:50:18;;;;;;;30.23;17.38;;;16.10;62.20;;;;;;5061818;28;20183;-77
2021/03/13 09:52:46;;;;;;;29.00;17.52;;;15.90;63.20;;;;;;5045798;28;20655;-77
2021/03/13 09:55:21;;;;;;;21.23;14.85;;;16.00;64.20;;;;;;5062870;28;20229;-76
2021/03/13 09:57:51;;;;;;;24.13;15.43;;;16.30;64.30;;;;;;5047371;28;20191;-76
2021/03/13 10:00:30;;;;;;;25.58;15.52;;;16.70;64.10;;;;;;5043880;28;20294;-77
2021/03/13 10:02:58;;;;;;;18.20;14.10;;;17.30;62.70;;;;;;5065538;28;20170;-77
2021/03/13 10:05:31;;;;;;;20.60;14.95;;;18.00;61.90;;;;;;5067625;28;20182;-76
2021/03/13 10:08:04;;;;;;;22.83;15.18;;;18.80;60.50;;;;;;5045134;28;20175;-77
2021/03/13 10:10:30;;;;;;;19.42;12.80;;;19.60;59.90;;;;;;5068436;28;20231;-77
2021/03/13 10:13:01;;;;;;;23.65;13.32;;;20.30;58.30;;;;;;5046152;28;20183;-77
2021/03/13 10:15:30;;;;;;;16.33;13.38;;;20.70;56.80;;;;;;5045056;28;20183;-77
2021/03/13 10:18:03;;;;;;;20.00;15.05;;;21.00;56.30;;;;;;5066859;28;20189;-77
2021/03/13 10:20:58;;;;;;;19.73;15.48;;;21.10;55.90;;;;;;5041049;28;20217;-77
2021/03/13 10:23:30;;;;;;;15.90;13.07;;;21.20;56.20;;;;;;4949815;28;20795;-76
2021/03/13 10:26:08;;;;;;;18.95;14.43;;;21.20;55.50;;;;;;4965882;28;20682;-78
2021/03/13 10:28:37;;;;;;;22.73;15.60;;;21.20;55.20;;;;;;4962560;28;20198;-77
2021/03/13 10:31:16;;;;;;;18.80;14.60;;;21.20;55.40;;;;;;4962015;28;20265;-78
2021/03/13 10:33:44;;;;;;;20.52;14.93;;;21.10;55.70;;;;;;4965561;28;20185;-78
2021/03/13 10:36:11;;;;;;;26.35;14.85;;;20.90;55.90;;;;;;4947523;28;20659;-77
2021/03/13 10:38:42;;;;;;;19.30;14.30;;;20.60;55.80;;;;;;4947517;28;20269;-76
2021/03/13 10:41:14;;;;;;;19.48;13.68;;;20.40;55.80;;;;;;4963119;28;20226;-74
2021/03/13 10:43:44;;;;;;;19.02;13.82;;;20.10;56.30;;;;;;4962796;28;20191;-74
2021/03/13 10:46:16;;;;;;;22.27;12.98;;;19.70;56.40;;;;;;4963106;28;20285;-75
2021/03/13 10:48:50;;;;;;;17.83;12.23;;;19.40;56.80;;;;;;4962793;28;20245;-74
2021/03/13 10:51:19;;;;;;;13.15;10.40;;;19.30;57.60;;;;;;4963035;28;20178;-74
2021/03/13 10:53:45;;;;;;;14.18;10.80;;;19.20;57.20;;;;;;4961887;28;20229;-74
2021/03/13 10:56:12;;;;;;;14.25;10.02;;;19.10;58.10;;;;;;4962708;28;21022;-74
2021/03/13 10:58:57;;;;;;;21.25;9.90;;;18.90;58.20;;;;;;4946493;28;20245;-75
2021/03/13 11:01:23;;;;;;;11.27;9.20;;;18.80;58.50;;;;;;5035960;28;20199;-75
2021/03/13 11:03:51;;;;;;;22.85;11.38;;;18.80;58.30;;;;;;5062358;28;20182;-74
2021/03/13 11:06:31;;;;;;;13.95;10.40;;;18.70;58.80;;;;;;5052458;28;20203;-74
2021/03/13 11:08:59;;;;;;;10.20;9.05;;;18.50;58.30;;;;;;5040318;28;20174;-75
2021/03/13 11:11:25;;;;;;;12.82;7.90;;;18.20;59.40;;;;;;5071594;28;20190;-76
2021/03/13 11:13:51;;;;;;;10.75;8.88;;;18.00;59.30;;;;;;5062351;28;20170;-75
2021/03/13 11:16:22;;;;;;;15.18;9.10;;;17.70;59.90;;;;;;5064256;28;20187;-75
2021/03/13 11:18:48;;;;;;;12.20;8.05;;;17.30;60.90;;;;;;5067208;28;20166;-74
2021/03/13 11:21:14;;;;;;;9.73;8.68;;;17.00;61.10;;;;;;5065847;28;20214;-75
2021/03/13 11:23:40;;;;;;;9.88;8.30;;;16.70;61.70;;;;;;5062650;28;20179;-75
2021/03/13 11:26:06;;;;;;;13.60;9.68;;;16.50;62.50;;;;;;5060260;28;20232;-75
2021/03/13 11:28:31;;;;;;;12.98;8.20;;;16.30;63.00;;;;;;5058158;28;20174;-74
2021/03/13 11:30:57;;;;;;;8.60;6.68;;;16.40;63.00;;;;;;5069700;28;20198;-75
2021/03/13 11:33:23;;;;;;;6.80;6.13;;;16.50;62.30;;;;;;5066884;28;20622;-75
2021/03/13 11:35:48;;;;;;;5.57;5.13;;;16.70;62.40;;;;;;5073551;28;20207;-75
2021/03/13 11:38:14;;;;;;;7.38;6.60;;;17.40;62.20;;;;;;5071100;28;20183;-75
2021/03/13 11:40:40;;;;;;;6.72;5.88;;;18.50;60.00;;;;;;5048429;28;20230;-75
2021/03/13 11:43:06;;;;;;;5.50;5.10;;;19.60;58.90;;;;;;5064185;28;20171;-75
2021/03/13 11:45:32;;;;;;;5.03;4.53;;;21.00;56.80;;;;;;5067747;28;20187;-75
2021/03/13 11:47:58;;;;;;;6.00;5.40;;;22.30;54.40;;;;;;5066224;28;20197;-75
2021/03/13 11:50:25;;;;;;;9.02;6.22;;;23.00;53.40;;;;;;5048752;28;20852;-74
2021/03/13 11:52:54;;;;;;;9.40;7.35;;;23.60;52.50;;;;;;5070341;28;20181;-79
2021/03/13 11:55:21;;;;;;;9.88;7.18;;;23.20;51.10;;;;;;5070441;28;20638;-75
2021/03/13 11:57:46;;;;;;;6.95;6.32;;;22.90;52.60;;;;;;5076308;28;20183;-76
2021/03/13 12:00:13;;;;;;;6.20;5.68;;;23.10;52.90;;;;;;5067858;28;20612;-74
2021/03/13 12:02:39;;;;;;;5.50;4.20;;;23.60;52.40;;;;;;5067454;28;20171;-74
2021/03/13 12:05:07;;;;;;;3.55;3.30;;;24.10;52.50;;;;;;5068358;28;20183;-74
2021/03/13 12:07:34;;;;;;;3.10;3.00;;;24.60;51.40;;;;;;5070877;28;20633;-76
2021/03/13 12:09:59;;;;;;;3.47;2.92;;;24.90;50.00;;;;;;5044107;28;20194;-76
2021/03/13 12:12:25;;;;;;;5.47;2.90;;;24.50;50.40;;;;;;5047679;28;20272;-76
2021/03/13 12:14:51;;;;;;;3.70;3.40;;;24.00;49.80;;;;;;5067687;28;20194;-75
2021/03/13 12:17:17;;;;;;;6.30;3.00;;;23.20;50.10;;;;;;5067058;28;20610;-77
2021/03/13 12:19:43;;;;;;;4.13;2.83;;;22.40;52.30;;;;;;5067119;28;20757;-76
2021/03/13 12:22:09;;;;;;;3.17;2.95;;;22.10;52.20;;;;;;5060892;28;20218;-73
2021/03/13 12:24:35;;;;;;;3.75;3.53;;;22.00;52.20;;;;;;5055879;28;20175;-72
2021/03/13 12:27:02;;;;;;;3.78;3.55;;;21.70;51.80;;;;;;5057508;28;20191;-72
2021/03/13 12:29:27;;;;;;;3.63;3.33;;;21.40;53.00;;;;;;5057604;28;20636;-74
2021/03/13 12:31:53;;;;;;;3.70;3.42;;;21.00;52.70;;;;;;5037888;28;20199;-72
2021/03/13 12:34:19;;;;;;;5.70;3.42;;;20.90;53.60;;;;;;5060948;28;20183;-72
2021/03/13 12:36:45;;;;;;;3.45;3.35;;;21.40;53.70;;;;;;5063051;28;20679;-72
2021/03/13 12:39:11;;;;;;;3.42;3.22;;;22.30;52.60;;;;;;5055984;28;20257;-73
2021/03/13 12:41:37;;;;;;;4.22;3.85;;;23.00;51.50;;;;;;5058826;28;20266;-72
2021/03/13 12:44:06;;;;;;;4.07;3.78;;;23.80;50.20;;;;;;5046449;28;20280;-77